Wetterstation Vordersexau
Wetterdaten: Woche 03.03.14 - 09.03.14 (KW10)
Datum Zeit Temp. A. Feuchte A. Luftdruck Regen Wind Richtung Taupunkt Windchill Windben
03.03.2014 00:00 2,3 C 81 % 968,1 hPa 0,0 l/m 0,0 km/h N-NO -0,6 C 2,3 C 0,0 km/h
03.03.2014 01:00 1,9 C 83 % 966,9 hPa 0,0 l/m 0,0 km/h O-NO -0,7 C 1,9 C 0,0 km/h
03.03.2014 02:00 0,8 C 85 % 965,5 hPa 0,0 l/m 0,0 km/h O-NO -1,4 C 0,8 C 0,0 km/h
03.03.2014 03:00 0,1 C 85 % 964,7 hPa 0,0 l/m 0,0 km/h O-NO -2,1 C 0,1 C 0,0 km/h
03.03.2014 04:00 0,1 C 86 % 964,0 hPa 0,0 l/m 0,0 km/h O-NO -2,0 C 0,1 C 0,0 km/h
03.03.2014 05:00 0,0 C 86 % 963,8 hPa 0,0 l/m 0,0 km/h O -2,1 C 0,0 C 0,0 km/h
03.03.2014 06:00 0,2 C 86 % 963,9 hPa 0,0 l/m 0,0 km/h S-SO -1,9 C 0,2 C 0,0 km/h
03.03.2014 07:00 2,3 C 86 % 965,0 hPa 0,2 l/m 0,6 km/h N-NO 0,2 C 2,3 C 0,4 km/h
03.03.2014 08:00 3,6 C 86 % 965,4 hPa 0,0 l/m 0,0 km/h N 1,5 C 3,6 C 0,0 km/h
03.03.2014 09:00 4,5 C 86 % 965,5 hPa 0,0 l/m 0,0 km/h W 2,4 C 4,5 C 0,0 km/h
03.03.2014 10:00 7,2 C 84 % 965,7 hPa 0,0 l/m 19,4 km/h SW 4,7 C -0,1 C 10,8 km/h
03.03.2014 11:00 8,2 C 78 % 966,2 hPa 0,0 l/m 25,3 km/h S-SW 4,6 C -0,7 C 14,0 km/h
03.03.2014 12:00 9,2 C 72 % 966,0 hPa 0,0 l/m 32,4 km/h W-SW 4,4 C -1,0 C 18,0 km/h
03.03.2014 13:00 8,8 C 71 % 965,8 hPa 0,0 l/m 36,3 km/h W-SW 3,8 C -2,3 C 20,2 km/h
03.03.2014 14:00 8,3 C 69 % 966,3 hPa 0,0 l/m 31,8 km/h S-SW 3,0 C -2,1 C 17,6 km/h
03.03.2014 15:00 8,5 C 66 % 965,8 hPa 0,0 l/m 15,6 km/h SW 2,5 C 3,1 C 8,6 km/h
03.03.2014 16:00 8,2 C 66 % 965,8 hPa 0,0 l/m 24,0 km/h S 2,2 C -0,3 C 13,3 km/h
03.03.2014 17:00 7,5 C 67 % 965,9 hPa 0,0 l/m 1,9 km/h SO 1,8 C 7,5 C 1,1 km/h
03.03.2014 18:00 5,9 C 72 % 966,2 hPa 0,0 l/m 0,0 km/h O-NO 1,2 C 5,9 C 0,0 km/h
03.03.2014 19:00 5,1 C 75 % 966,3 hPa 0,0 l/m 0,0 km/h NO 1,0 C 5,1 C 0,0 km/h
03.03.2014 20:00 4,4 C 76 % 966,2 hPa 0,0 l/m 0,0 km/h O-NO 0,5 C 4,4 C 0,0 km/h
03.03.2014 21:00 3,8 C 79 % 966,7 hPa 0,0 l/m 0,0 km/h O-SO 0,5 C 3,8 C 0,0 km/h
03.03.2014 22:00 3,6 C 79 % 966,9 hPa 0,0 l/m 1,1 km/h O 0,3 C 3,6 C 1,1 km/h
03.03.2014 23:00 2,6 C 82 % 966,9 hPa 0,0 l/m 0,0 km/h O -0,2 C 2,6 C 0,0 km/h
04.03.2014 00:00 1,3 C 83 % 967,1 hPa 0,0 l/m 0,0 km/h NO -1,3 C 1,3 C 0,0 km/h
04.03.2014 01:00 0,0 C 85 % 967,4 hPa 0,0 l/m 0,0 km/h O -2,2 C 0,0 C 0,0 km/h
04.03.2014 02:00 0,5 C 86 % 967,6 hPa 0,0 l/m 0,0 km/h O-NO -1,6 C 0,5 C 0,0 km/h
04.03.2014 03:00 0,6 C 86 % 967,9 hPa 0,0 l/m 0,0 km/h NO -1,5 C 0,6 C 0,0 km/h
04.03.2014 04:00 1,3 C 86 % 968,6 hPa 0,0 l/m 0,0 km/h NO -0,8 C 1,3 C 0,0 km/h
04.03.2014 05:00 1,8 C 86 % 969,2 hPa 0,0 l/m 0,0 km/h NO -0,3 C 1,8 C 0,0 km/h
04.03.2014 06:00 1,9 C 86 % 970,0 hPa 0,0 l/m 0,0 km/h NO -0,2 C 1,9 C 0,0 km/h
04.03.2014 07:00 2,1 C 86 % 971,0 hPa 0,0 l/m 0,0 km/h S-SW 0,0 C 2,1 C 0,0 km/h
04.03.2014 08:00 2,4 C 86 % 972,1 hPa 0,0 l/m 1,3 km/h S-SW 0,3 C 2,4 C 0,7 km/h
04.03.2014 09:00 2,9 C 86 % 973,1 hPa 0,0 l/m 0,0 km/h S-SW 0,8 C 2,9 C 0,0 km/h
04.03.2014 10:00 4,5 C 85 % 973,8 hPa 0,0 l/m 0,0 km/h S-SW 2,2 C 4,5 C 0,0 km/h
04.03.2014 11:00 5,5 C 84 % 974,6 hPa 0,2 l/m 0,0 km/h SO 3,0 C 5,5 C 0,0 km/h
04.03.2014 12:00 6,9 C 81 % 974,9 hPa 0,0 l/m 0,0 km/h N 3,9 C 6,9 C 0,0 km/h
04.03.2014 13:00 7,3 C 80 % 975,1 hPa 0,0 l/m 0,0 km/h N-NW 4,1 C 7,3 C 0,0 km/h
04.03.2014 14:00 8,6 C 77 % 975,3 hPa 0,0 l/m 0,0 km/h NW 4,8 C 8,6 C 0,0 km/h
04.03.2014 15:00 8,3 C 76 % 975,7 hPa 0,0 l/m 0,0 km/h N-NW 4,3 C 8,3 C 0,0 km/h
04.03.2014 16:00 7,1 C 77 % 976,4 hPa 0,0 l/m 0,0 km/h N-NW 3,3 C 7,1 C 0,0 km/h
04.03.2014 17:00 6,9 C 78 % 976,9 hPa 0,0 l/m 0,0 km/h N-NW 3,3 C 6,9 C 0,0 km/h
04.03.2014 18:00 5,9 C 80 % 977,6 hPa 0,0 l/m 0,0 km/h N-NW 2,7 C 5,9 C 0,0 km/h
04.03.2014 19:00 4,1 C 83 % 978,4 hPa 0,0 l/m 0,0 km/h N-NW 1,5 C 4,1 C 0,0 km/h
04.03.2014 20:00 3,3 C 85 % 979,1 hPa 0,0 l/m 0,0 km/h O-SO 1,0 C 3,3 C 0,0 km/h
04.03.2014 21:00 2,4 C 86 % 980,0 hPa 0,0 l/m 0,0 km/h O-SO 0,3 C 2,4 C 0,0 km/h
04.03.2014 22:00 2,4 C 86 % 980,8 hPa 0,0 l/m 0,0 km/h O-SO 0,3 C 2,4 C 0,0 km/h
04.03.2014 23:00 3,1 C 86 % 981,0 hPa 0,0 l/m 0,0 km/h O-SO 1,0 C 3,1 C 0,0 km/h
05.03.2014 00:00 2,9 C 86 % 981,1 hPa 0,0 l/m 0,0 km/h O-SO 0,8 C 2,9 C 0,0 km/h
05.03.2014 01:00 1,8 C 86 % 981,6 hPa 0,0 l/m 0,0 km/h O -0,3 C 1,8 C 0,0 km/h
05.03.2014 02:00 2,1 C 85 % 982,4 hPa 0,0 l/m 0,0 km/h O-NO -0,2 C 2,1 C 0,0 km/h
05.03.2014 03:00 3,0 C 85 % 982,7 hPa 0,0 l/m 0,0 km/h O-SO 0,7 C 3,0 C 0,0 km/h
05.03.2014 04:00 3,3 C 85 % 983,1 hPa 0,0 l/m 0,0 km/h O-SO 1,0 C 3,3 C 0,0 km/h
05.03.2014 05:00 3,2 C 86 % 983,8 hPa 0,0 l/m 0,0 km/h O-SO 1,1 C 3,2 C 0,0 km/h
05.03.2014 06:00 3,2 C 86 % 984,6 hPa 0,0 l/m 0,0 km/h O-SO 1,1 C 3,2 C 0,0 km/h
05.03.2014 07:00 3,0 C 86 % 985,6 hPa 0,0 l/m 0,0 km/h O-NO 0,9 C 3,0 C 0,0 km/h
05.03.2014 08:00 4,1 C 85 % 986,7 hPa 0,0 l/m 0,0 km/h O-NO 1,8 C 4,1 C 0,0 km/h
05.03.2014 09:00 6,5 C 86 % 987,5 hPa 0,0 l/m 0,0 km/h W 4,3 C 6,5 C 0,0 km/h
05.03.2014 10:00 10,2 C 79 % 988,1 hPa 0,0 l/m 0,6 km/h S-SO 6,7 C 10,2 C 0,4 km/h
05.03.2014 11:00 14,8 C 67 % 988,5 hPa 0,0 l/m 1,9 km/h W-SW 8,7 C 14,8 C 1,1 km/h
05.03.2014 12:00 16,6 C 53 % 988,8 hPa 0,0 l/m 8,4 km/h N 7,0 C 15,6 C 4,7 km/h
05.03.2014 13:00 15,1 C 50 % 988,9 hPa 0,0 l/m 1,9 km/h N-NW 4,8 C 15,1 C 1,1 km/h
05.03.2014 14:00 16,6 C 45 % 988,8 hPa 0,0 l/m 5,8 km/h N-NO 4,6 C 16,6 C 3,2 km/h
05.03.2014 15:00 18,9 C 39 % 1016,2 hPa 0,0 l/m 13,0 km/h N-NO 4,6 C 16,5 C 7,2 km/h
05.03.2014 16:00 18,4 C 35 % 1017,0 hPa 0,0 l/m 5,8 km/h N-NO 2,7 C 18,4 C 3,2 km/h
05.03.2014 17:00 16,1 C 40 % 1017,7 hPa 0,0 l/m 21,4 km/h N-NO 2,5 C 10,8 C 11,9 km/h
05.03.2014 18:00 9,8 C 53 % 1018,4 hPa 0,0 l/m 0,0 km/h N-NO 0,7 C 9,8 C 0,0 km/h
05.03.2014 19:00 4,9 C 66 % 1019,7 hPa 0,0 l/m 0,0 km/h NO -0,9 C 4,9 C 0,0 km/h
05.03.2014 20:00 4,4 C 74 % 1020,3 hPa 0,0 l/m 0,0 km/h O-NO 0,2 C 4,4 C 0,0 km/h
05.03.2014 21:00 3,1 C 80 % 994,1 hPa 0,0 l/m 0,0 km/h O-SO -0,0 C 3,1 C 0,0 km/h
05.03.2014 22:00 2,0 C 82 % 994,7 hPa 0,0 l/m 0,0 km/h O-SO -0,7 C 2,0 C 0,0 km/h
05.03.2014 23:00 1,8 C 83 % 995,1 hPa 0,0 l/m 0,0 km/h NO -0,8 C 1,8 C 0,0 km/h
06.03.2014 00:00 0,8 C 84 % 995,5 hPa 0,0 l/m 0,0 km/h NO -1,6 C 0,8 C 0,0 km/h
06.03.2014 01:00 -0,2 C 85 % 995,8 hPa 0,0 l/m 0,0 km/h O -2,4 C -0,2 C 0,0 km/h
06.03.2014 02:00 -0,2 C 86 % 996,2 hPa 0,0 l/m 0,0 km/h N-NO -2,3 C -0,2 C 0,0 km/h
06.03.2014 03:00 -0,7 C 86 % 996,2 hPa 0,0 l/m 0,0 km/h N-NO -2,7 C -0,7 C 0,0 km/h
06.03.2014 04:00 -1,0 C 86 % 996,5 hPa 0,0 l/m 0,0 km/h N-NO -3,0 C -1,0 C 0,0 km/h
06.03.2014 05:00 -1,6 C 87 % 996,9 hPa 0,0 l/m 0,0 km/h SO -3,5 C -1,6 C 0,0 km/h
06.03.2014 06:00 -2,2 C 87 % 997,2 hPa 0,0 l/m 0,0 km/h O -4,1 C -2,2 C 0,0 km/h
06.03.2014 07:00 -1,9 C 87 % 997,6 hPa 0,0 l/m 0,0 km/h N-NO -3,8 C -1,9 C 0,0 km/h
06.03.2014 08:00 1,1 C 79 % 998,2 hPa 0,0 l/m 0,0 km/h N-NO -2,1 C 1,1 C 0,0 km/h
06.03.2014 09:00 5,1 C 85 % 998,7 hPa 0,0 l/m 0,0 km/h W 2,8 C 5,1 C 0,0 km/h
06.03.2014 10:00 12,1 C 68 % 1025,4 hPa 0,0 l/m 0,0 km/h W-SW 6,4 C 12,1 C 0,0 km/h
06.03.2014 11:00 14,1 C 58 % 1025,2 hPa 0,0 l/m 0,0 km/h W-NW 6,0 C 14,1 C 0,0 km/h
06.03.2014 12:00 16,1 C 52 % 997,8 hPa 0,0 l/m 1,9 km/h O 6,2 C 16,1 C 1,1 km/h
06.03.2014 13:00 17,2 C 45 % 997,3 hPa 0,0 l/m 0,0 km/h N-NO 5,2 C 17,2 C 0,0 km/h
06.03.2014 14:00 17,3 C 42 % 996,6 hPa 0,0 l/m 3,2 km/h N 4,3 C 17,3 C 1,8 km/h
06.03.2014 15:00 19,9 C 39 % 996,3 hPa 0,0 l/m 1,9 km/h N-NO 5,5 C 19,9 C 1,1 km/h
06.03.2014 16:00 19,8 C 38 % 996,3 hPa 0,0 l/m 0,0 km/h NO 5,1 C 19,8 C 0,0 km/h
06.03.2014 17:00 16,8 C 42 % 996,4 hPa 0,0 l/m 0,0 km/h NO 3,8 C 16,8 C 0,0 km/h
06.03.2014 18:00 9,5 C 55 % 996,7 hPa 0,0 l/m 0,0 km/h N-NO 0,9 C 9,5 C 0,0 km/h
06.03.2014 19:00 6,5 C 67 % 997,0 hPa 0,0 l/m 0,0 km/h O-SO 0,8 C 6,5 C 0,0 km/h
06.03.2014 20:00 4,5 C 73 % 997,0 hPa 0,0 l/m 0,0 km/h O 0,1 C 4,5 C 0,0 km/h
06.03.2014 21:00 3,9 C 77 % 997,1 hPa 0,0 l/m 0,0 km/h O-NO 0,2 C 3,9 C 0,0 km/h
06.03.2014 22:00 3,3 C 80 % 997,1 hPa 0,0 l/m 0,0 km/h O-NO 0,2 C 3,3 C 0,0 km/h
06.03.2014 23:00 3,1 C 81 % 996,9 hPa 0,0 l/m 0,0 km/h O-NO 0,2 C 3,1 C 0,0 km/h
07.03.2014 00:00 1,8 C 82 % 996,8 hPa 0,0 l/m 0,0 km/h O-NO -0,9 C 1,8 C 0,0 km/h
07.03.2014 01:00 1,5 C 83 % 996,5 hPa 0,0 l/m 0,0 km/h NO -1,1 C 1,5 C 0,0 km/h
07.03.2014 02:00 1,6 C 84 % 996,6 hPa 0,0 l/m 0,0 km/h O -0,8 C 1,6 C 0,0 km/h
07.03.2014 03:00 1,4 C 85 % 996,0 hPa 0,0 l/m 0,0 km/h O-SO -0,8 C 1,4 C 0,0 km/h
07.03.2014 04:00 0,4 C 85 % 995,9 hPa 0,0 l/m 0,0 km/h SO -1,8 C 0,4 C 0,0 km/h
07.03.2014 05:00 0,1 C 86 % 996,2 hPa 0,0 l/m 7,1 km/h O-SO -2,0 C -0,6 C 4,0 km/h
07.03.2014 06:00 0,4 C 86 % 996,6 hPa 0,0 l/m 0,0 km/h O-NO -1,7 C 0,4 C 0,0 km/h
07.03.2014 07:00 -1,1 C 86 % 996,5 hPa 0,0 l/m 0,0 km/h O-SO -3,1 C -1,1 C 0,0 km/h
07.03.2014 08:00 3,3 C 85 % 997,1 hPa 0,0 l/m 0,0 km/h O 1,0 C 3,3 C 0,0 km/h
07.03.2014 09:00 8,4 C 76 % 997,0 hPa 0,0 l/m 0,0 km/h SW 4,4 C 8,4 C 0,0 km/h
07.03.2014 10:00 14,1 C 59 % 997,1 hPa 0,0 l/m 0,0 km/h W 6,2 C 14,1 C 0,0 km/h
07.03.2014 11:00 15,5 C 53 % 997,0 hPa 0,0 l/m 0,0 km/h W 6,0 C 15,5 C 0,0 km/h
07.03.2014 12:00 15,2 C 51 % 996,7 hPa 0,0 l/m 0,0 km/h S 5,1 C 15,2 C 0,0 km/h
07.03.2014 13:00 16,0 C 49 % 996,2 hPa 0,0 l/m 0,0 km/h S-SO 5,3 C 16,0 C 0,0 km/h
07.03.2014 14:00 17,7 C 44 % 995,9 hPa 0,0 l/m 0,0 km/h W-SW 5,3 C 17,7 C 0,0 km/h
07.03.2014 15:00 21,4 C 39 % 996,0 hPa 0,0 l/m 0,0 km/h N-NW 6,9 C 21,4 C 0,0 km/h
07.03.2014 16:00 21,3 C 35 % 995,8 hPa 0,0 l/m 0,0 km/h W-NW 5,2 C 21,3 C 0,0 km/h
07.03.2014 17:00 18,5 C 39 % 995,9 hPa 0,0 l/m 0,0 km/h W 4,3 C 18,5 C 0,0 km/h
07.03.2014 18:00 9,5 C 54 % 996,3 hPa 0,0 l/m 0,0 km/h W 0,7 C 9,5 C 0,0 km/h
07.03.2014 19:00 6,6 C 70 % 996,7 hPa 0,0 l/m 0,0 km/h SO 1,5 C 6,6 C 0,0 km/h
07.03.2014 20:00 5,4 C 76 % 996,7 hPa 0,0 l/m 0,0 km/h O 1,5 C 5,4 C 0,0 km/h
07.03.2014 21:00 4,7 C 79 % 996,9 hPa 0,0 l/m 0,0 km/h O-SO 1,4 C 4,7 C 0,0 km/h
07.03.2014 22:00 4,1 C 79 % 997,6 hPa 0,0 l/m 10,8 km/h O 0,8 C 0,5 C 10,8 km/h
07.03.2014 23:00 3,6 C 82 % 998,5 hPa 0,0 l/m 0,0 km/h O-SO 0,8 C 3,6 C 0,0 km/h
08.03.2014 00:00 3,4 C 83 % 998,9 hPa 0,0 l/m 0,0 km/h O-SO 0,8 C 3,4 C 0,0 km/h
08.03.2014 01:00 3,1 C 84 % 999,4 hPa 0,0 l/m 2,5 km/h O-NO 0,7 C 3,1 C 2,5 km/h
08.03.2014 02:00 2,8 C 84 % 999,4 hPa 0,0 l/m 0,0 km/h SO 0,4 C 2,8 C 0,0 km/h
08.03.2014 03:00 1,8 C 84 % 999,7 hPa 0,0 l/m 0,0 km/h N -0,6 C 1,8 C 0,0 km/h
08.03.2014 04:00 2,6 C 86 % 999,4 hPa 0,0 l/m 0,0 km/h SO 0,5 C 2,6 C 0,0 km/h
08.03.2014 05:00 1,3 C 86 % 999,9 hPa 0,0 l/m 0,0 km/h O-NO -0,8 C 1,3 C 0,0 km/h
08.03.2014 06:00 -0,1 C 86 % 1000,5 hPa 0,0 l/m 0,0 km/h NO -2,2 C -0,1 C 0,0 km/h
08.03.2014 07:00 -0,3 C 86 % 1001,1 hPa 0,0 l/m 0,0 km/h N-NO -2,3 C -0,3 C 0,0 km/h
08.03.2014 08:00 3,9 C 85 % 1001,7 hPa 0,0 l/m 1,3 km/h W 1,6 C 3,9 C 0,7 km/h
08.03.2014 09:00 8,7 C 78 % 1001,9 hPa 0,0 l/m 3,2 km/h W-NW 5,1 C 8,7 C 1,8 km/h
08.03.2014 10:00 14,1 C 62 % 1001,7 hPa 0,0 l/m 0,0 km/h W-NW 6,9 C 14,1 C 0,0 km/h
08.03.2014 11:00 16,8 C 56 % 1001,4 hPa 0,0 l/m 0,0 km/h S-SW 8,0 C 16,8 C 0,0 km/h
08.03.2014 12:00 19,1 C 54 % 1000,8 hPa 0,0 l/m 0,0 km/h W-NW 9,6 C 19,1 C 0,0 km/h
08.03.2014 13:00 19,1 C 51 % 1000,0 hPa 0,0 l/m 5,8 km/h W 8,7 C 19,1 C 3,2 km/h
08.03.2014 14:00 20,8 C 44 % 999,0 hPa 0,0 l/m 0,0 km/h N-NO 8,1 C 20,8 C 0,0 km/h
08.03.2014 15:00 24,5 C 37 % 998,8 hPa 0,0 l/m 7,1 km/h O 8,8 C 24,3 C 4,0 km/h
08.03.2014 16:00 25,8 C 30 % 998,5 hPa 0,0 l/m 0,0 km/h NO 6,9 C 25,8 C 0,0 km/h
08.03.2014 17:00 23,3 C 32 % 998,4 hPa 0,0 l/m 0,0 km/h O-NO 5,7 C 23,3 C 0,0 km/h
08.03.2014 18:00 14,9 C 44 % 998,5 hPa 0,0 l/m 0,0 km/h N 2,8 C 14,9 C 0,0 km/h
08.03.2014 19:00 10,1 C 54 % 999,0 hPa 0,0 l/m 0,0 km/h S-SO 1,2 C 10,1 C 0,0 km/h
08.03.2014 20:00 7,3 C 62 % 999,1 hPa 0,0 l/m 0,0 km/h O-SO 0,5 C 7,3 C 0,0 km/h
08.03.2014 21:00 5,4 C 68 % 999,2 hPa 0,0 l/m 0,0 km/h NO -0,0 C 5,4 C 0,0 km/h
08.03.2014 22:00 5,0 C 69 % 999,4 hPa 0,0 l/m 0,0 km/h NO -0,2 C 5,0 C 0,0 km/h
08.03.2014 23:00 3,8 C 72 % 999,2 hPa 0,0 l/m 0,0 km/h SO -0,8 C 3,8 C 0,0 km/h
09.03.2014 00:00 3,1 C 75 % 999,4 hPa 0,0 l/m 0,0 km/h NO -0,9 C 3,1 C 0,0 km/h
09.03.2014 01:00 2,4 C 77 % 999,3 hPa 0,0 l/m 0,0 km/h O-NO -1,2 C 2,4 C 0,0 km/h
09.03.2014 02:00 0,7 C 79 % 999,2 hPa 0,0 l/m 0,0 km/h N-NO -2,5 C 0,7 C 0,0 km/h
09.03.2014 03:00 0,5 C 81 % 998,8 hPa 0,0 l/m 0,0 km/h O-SO -2,4 C 0,5 C 0,0 km/h
09.03.2014 04:00 0,1 C 82 % 999,1 hPa 0,0 l/m 0,0 km/h N-NO -2,6 C 0,1 C 0,0 km/h
09.03.2014 05:00 -0,1 C 84 % 999,7 hPa 0,0 l/m 0,0 km/h O-NO -2,5 C -0,1 C 0,0 km/h
09.03.2014 06:00 -0,9 C 84 % 1000,3 hPa 0,0 l/m 0,0 km/h O-NO -3,3 C -0,9 C 0,0 km/h
09.03.2014 07:00 -0,8 C 86 % 1000,7 hPa 0,0 l/m 0,0 km/h O-NO -2,8 C -0,8 C 0,0 km/h
09.03.2014 08:00 4,3 C 84 % 1000,9 hPa 0,0 l/m 0,0 km/h SO 1,8 C 4,3 C 0,0 km/h
09.03.2014 09:00 10,5 C 69 % 1001,3 hPa 0,0 l/m 1,3 km/h W-SW 5,1 C 10,5 C 0,7 km/h
09.03.2014 10:00 18,9 C 45 % 1000,9 hPa 0,0 l/m 0,0 km/h NW 6,7 C 18,9 C 0,0 km/h
09.03.2014 11:00 19,3 C 39 % 1000,2 hPa 0,0 l/m 3,2 km/h NW 5,0 C 19,3 C 1,8 km/h
09.03.2014 12:00 18,9 C 38 % 999,7 hPa 0,0 l/m 0,0 km/h W-NW 4,3 C 18,9 C 0,0 km/h
09.03.2014 13:00 18,7 C 41 % 999,1 hPa 0,0 l/m 3,2 km/h N-NO 5,2 C 18,7 C 1,8 km/h
09.03.2014 14:00 19,9 C 39 % 998,3 hPa 0,0 l/m 2,6 km/h W-NW 5,5 C 19,9 C 1,4 km/h
09.03.2014 15:00 22,5 C 35 % 997,5 hPa 0,0 l/m 0,0 km/h N 6,3 C 22,5 C 0,0 km/h
09.03.2014 16:00 23,6 C 34 % 997,4 hPa 0,0 l/m 0,0 km/h W 6,8 C 23,6 C 0,0 km/h
09.03.2014 17:00 20,5 C 38 % 997,1 hPa 0,0 l/m 0,0 km/h W-NW 5,7 C 20,5 C 0,0 km/h
09.03.2014 18:00 13,8 C 52 % 997,0 hPa 0,0 l/m 0,0 km/h O-NO 4,1 C 13,8 C 0,0 km/h
09.03.2014 19:00 8,6 C 67 % 997,2 hPa 0,0 l/m 0,0 km/h O-SO 2,8 C 8,6 C 0,0 km/h
09.03.2014 20:00 6,7 C 73 % 997,0 hPa 0,0 l/m 0,0 km/h O-SO 2,2 C 6,7 C 0,0 km/h
09.03.2014 21:00 5,6 C 78 % 996,7 hPa 0,0 l/m 0,0 km/h NO 2,1 C 5,6 C 0,0 km/h
09.03.2014 22:00 5,2 C 79 % 996,4 hPa 0,0 l/m 0,0 km/h N-NO 1,9 C 5,2 C 0,0 km/h
09.03.2014 23:00 3,1 C 80 % 996,2 hPa 0,0 l/m 0,0 km/h O-NO -0,0 C 3,1 C 0,0 km/h
Min-Datum _ 06.03.14 08.03.14 03.03.14 - 03.03.14 - 06.03.14 03.03.14 03.03.14
_ Min-Zeit 06:19 16:19 05:19 - 00:19 - 06:19 13:19 00:19
Minimum _ -2,2 C 30 % 963,8 hPa - 0,0 km/h - -4,1 C -2,3 C 0,0 km/h
Max-Datum _ 08.03.14 06.03.14 06.03.14 03.03.14 03.03.14 - 08.03.14 08.03.14 03.03.14
_ Max-Zeit 16:19 05:19 10:19 07:19 13:19 - 12:19 16:19 13:19
Maximum _ 25,8 C 87 % 1025,4 hPa 0,2 l/m 36,3 km/h
W-SW
- 9,6 C 25,8 C 20,2 km/h
W-SW
Durchschnitt _ 7,1 C 72 % 989,8 hPa #0,3 l/m 1,8 km/h O-NO 1,7 C 6,7 C 1,0 km/h
www.sexauwetter.de